Time;durP1;ratioP1;P1;durP2;ratioP2;P2;SDS_P1;SDS_P2;PMS_P1;PMS_P2;Temp;Humidity;BMP_temperature;BMP_pressure;BME280_temperature;BME280_humidity;BME280_pressure;Samples;Min_cycle;Max_cycle;Signal;HPM_P1;HPM_P2
2023/06/06 00:01:03;;;;;;;5.93;2.85;;;;;;;16.81;54.05;99039.19;5007340;28;20116;-80
2023/06/06 00:03:28;;;;;;;5.60;3.15;;;;;;;16.73;53.67;99031.75;5012714;28;20025;-80
2023/06/06 00:05:55;;;;;;;9.63;3.80;;;;;;;16.75;53.85;99037.66;5003242;28;20041;-80
2023/06/06 00:08:23;;;;;;;3.85;3.28;;;;;;;16.76;53.71;99039.25;5007061;28;20029;-80
2023/06/06 00:10:50;;;;;;;4.20;2.92;;;;;;;16.63;54.22;99037.19;5019377;28;20501;-80
2023/06/06 00:13:17;;;;;;;3.83;2.80;;;;;;;16.70;54.07;99037.69;5007962;28;20029;-80
2023/06/06 00:15:44;;;;;;;4.88;3.03;;;;;;;16.55;54.18;99021.66;5010603;28;20037;-80
2023/06/06 00:18:11;;;;;;;8.05;3.25;;;;;;;16.50;54.38;99038.66;5009256;28;20410;-80
2023/06/06 00:20:38;;;;;;;4.85;3.00;;;;;;;16.58;53.97;99037.25;5003818;28;20033;-80
2023/06/06 00:23:04;;;;;;;5.70;3.58;;;;;;;16.46;54.24;99022.22;5001469;28;20493;-80
2023/06/06 00:25:30;;;;;;;5.78;3.10;;;;;;;16.55;54.14;99040.50;5007649;28;20022;-80
2023/06/06 00:27:55;;;;;;;6.20;3.25;;;;;;;16.47;54.52;99042.69;4970486;28;20097;-80
2023/06/06 00:30:20;;;;;;;4.40;3.28;;;;;;;16.43;54.28;99047.03;5006794;28;20057;-80
2023/06/06 00:32:46;;;;;;;4.10;2.95;;;;;;;16.41;54.73;99043.81;5007874;28;20033;-80
2023/06/06 00:35:11;;;;;;;3.85;3.03;;;;;;;16.35;54.70;99042.25;5005721;28;20486;-80
2023/06/06 00:37:37;;;;;;;6.40;3.22;;;;;;;16.34;54.98;99039.81;5000528;28;20032;-80
2023/06/06 00:40:04;;;;;;;7.03;3.42;;;;;;;16.22;54.85;99036.69;5003605;28;20053;-80
2023/06/06 00:42:29;;;;;;;5.15;3.00;;;;;;;16.16;54.76;99044.00;5006542;28;20037;-80
2023/06/06 00:44:55;;;;;;;7.25;3.10;;;;;;;16.21;54.63;99038.56;4992937;28;20042;-80
2023/06/06 00:47:20;;;;;;;4.90;3.08;;;;;;;16.23;54.71;99049.88;4989034;28;20658;-80
2023/06/06 00:49:46;;;;;;;4.82;3.38;;;;;;;16.22;54.98;99048.28;5001753;28;20072;-80
2023/06/06 00:52:13;;;;;;;4.57;3.25;;;;;;;16.04;55.31;99032.78;5000118;28;20390;-81
2023/06/06 00:54:40;;;;;;;5.35;3.42;;;;;;;16.08;55.19;99041.91;4999405;28;20037;-81
2023/06/06 00:57:07;;;;;;;4.60;2.90;;;;;;;16.05;54.52;99029.00;5002191;28;20038;-81
2023/06/06 00:59:32;;;;;;;7.90;4.03;;;;;;;16.08;55.07;99039.19;5003522;28;20492;-81
2023/06/06 01:01:58;;;;;;;4.53;3.25;;;;;;;16.00;54.81;99033.59;5000467;28;20034;-80
2023/06/06 01:04:24;;;;;;;5.57;3.22;;;;;;;16.01;54.97;99044.09;4999573;28;20662;-80
2023/06/06 01:06:51;;;;;;;6.10;3.20;;;;;;;16.05;54.78;99036.28;4998760;28;20058;-80
2023/06/06 01:09:19;;;;;;;5.15;3.10;;;;;;;16.03;55.02;99036.53;4999264;28;20034;-81
2023/06/06 01:11:51;;;;;;;5.18;3.15;;;;;;;16.05;54.60;99039.78;5001258;28;20037;-80
2023/06/06 01:14:43;;;;;;;4.15;3.17;;;;;;;15.93;54.94;99039.28;5002107;28;20498;-80
2023/06/06 01:17:10;;;;;;;3.97;3.15;;;;;;;15.83;55.01;99042.06;5002405;28;20025;-80
2023/06/06 01:19:37;;;;;;;4.00;2.95;;;;;;;15.96;54.79;99041.44;5003200;28;20188;-80
2023/06/06 01:22:04;;;;;;;5.88;3.42;;;;;;;15.88;55.18;99041.22;5008109;28;20057;-80
2023/06/06 01:24:30;;;;;;;2.83;2.50;;;;;;;15.87;55.26;99043.09;5006595;28;20032;-80
2023/06/06 01:26:56;;;;;;;7.07;4.05;;;;;;;15.77;55.05;99041.25;5005316;28;20399;-80
2023/06/06 01:29:22;;;;;;;4.45;3.15;;;;;;;15.75;55.28;99042.63;5014701;28;20029;-80
2023/06/06 01:31:59;;;;;;;6.03;3.53;;;;;;;15.87;55.16;99040.41;5005955;28;20037;-80
2023/06/06 01:34:28;;;;;;;4.72;2.85;;;;;;;15.78;55.12;99039.38;5005501;28;20505;-80
2023/06/06 01:37:05;;;;;;;3.95;3.03;;;;;;;15.82;54.97;99047.69;5008627;28;20034;-80
2023/06/06 01:39:35;;;;;;;4.70;3.15;;;;;;;15.80;55.20;99045.28;5010071;28;20029;-82
2023/06/06 01:42:01;;;;;;;4.38;3.08;;;;;;;15.67;55.33;99046.72;5013890;28;20092;-80
2023/06/06 01:44:28;;;;;;;6.75;3.42;;;;;;;15.74;55.17;99046.41;5000626;28;20044;-80
2023/06/06 01:46:54;;;;;;;5.95;3.45;;;;;;;15.64;55.85;99039.19;5012147;28;20516;-80
2023/06/06 01:49:21;;;;;;;4.70;2.78;;;;;;;15.57;55.51;99035.19;4998331;28;20037;-80
2023/06/06 01:51:46;;;;;;;5.20;2.90;;;;;;;15.57;55.55;99044.03;4995930;28;20034;-80
2023/06/06 01:54:12;;;;;;;5.53;4.20;;;;;;;15.49;55.78;99036.56;5005987;28;20033;-80
2023/06/06 01:56:37;;;;;;;4.57;3.03;;;;;;;15.56;55.55;99030.88;4995167;28;20026;-80
2023/06/06 01:59:04;;;;;;;4.95;3.55;;;;;;;15.53;55.91;99044.91;4994600;28;23554;-80
2023/06/06 02:01:29;;;;;;;7.85;3.17;;;;;;;15.51;55.84;99037.09;5013132;28;20057;-80
2023/06/06 02:03:55;;;;;;;4.25;3.53;;;;;;;15.47;56.12;99043.28;5009109;28;20483;-80
2023/06/06 02:06:20;;;;;;;10.82;4.10;;;;;;;15.34;56.27;99041.97;5010469;28;20489;-80
2023/06/06 02:08:47;;;;;;;6.30;3.33;;;;;;;15.42;55.92;99051.38;5008193;28;20037;-80
2023/06/06 02:11:13;;;;;;;6.13;3.90;;;;;;;15.36;56.59;99050.56;5010283;28;20117;-80
2023/06/06 02:13:38;;;;;;;4.35;3.45;;;;;;;15.33;56.33;99043.03;5011373;28;20578;-80
2023/06/06 02:16:04;;;;;;;7.53;3.80;;;;;;;15.45;55.95;99042.75;5007340;28;20513;-80
2023/06/06 02:18:29;;;;;;;4.30;3.08;;;;;;;15.42;56.26;99045.97;5004135;28;20041;-80
2023/06/06 02:20:55;;;;;;;4.85;3.28;;;;;;;15.42;56.46;99051.38;5005621;28;20453;-80
2023/06/06 02:23:20;;;;;;;6.78;3.63;;;;;;;15.36;56.04;99039.81;5005021;28;20053;-80
2023/06/06 02:25:46;;;;;;;6.55;3.55;;;;;;;15.41;55.98;99049.75;5003418;28;20041;-80
2023/06/06 02:28:14;;;;;;;9.90;3.70;;;;;;;15.35;56.25;99048.16;5003734;28;20065;-80
2023/06/06 02:30:39;;;;;;;4.18;3.20;;;;;;;15.00;56.99;99057.91;5004611;28;20587;-80
2023/06/06 02:33:06;;;;;;;5.93;3.72;;;;;;;15.11;56.73;99047.16;5008478;28;20026;-80
2023/06/06 02:35:31;;;;;;;6.00;3.55;;;;;;;15.22;56.61;99049.53;5005647;28;20021;-80
2023/06/06 02:37:57;;;;;;;5.28;3.35;;;;;;;15.20;56.41;99053.59;5004814;28;20033;-80
2023/06/06 02:40:22;;;;;;;4.43;3.70;;;;;;;15.14;56.40;99046.59;5003776;28;20064;-80
2023/06/06 02:42:48;;;;;;;5.80;3.85;;;;;;;15.26;56.58;99055.16;4995557;28;20405;-79
2023/06/06 02:45:13;;;;;;;5.63;3.63;;;;;;;15.24;56.96;99052.75;5007105;28;20026;-80
2023/06/06 02:47:39;;;;;;;9.93;3.88;;;;;;;14.95;57.61;99049.06;4990759;28;20041;-80
2023/06/06 02:50:05;;;;;;;5.30;3.25;;;;;;;15.09;57.26;99058.19;5007371;28;20038;-80
2023/06/06 02:52:33;;;;;;;3.72;3.35;;;;;;;15.13;57.21;99051.19;5006850;28;20052;-80
2023/06/06 02:54:59;;;;;;;8.55;3.83;;;;;;;15.01;57.00;99048.78;4989473;28;20044;-80
2023/06/06 02:57:25;;;;;;;6.82;3.58;;;;;;;15.11;57.10;99045.28;5006249;28;20026;-80
2023/06/06 02:59:50;;;;;;;4.70;3.30;;;;;;;15.00;57.35;99039.09;5013345;28;20164;-80
2023/06/06 03:02:16;;;;;;;7.63;3.88;;;;;;;15.00;57.27;99049.84;5012697;28;20028;-80
2023/06/06 03:04:43;;;;;;;6.80;3.22;;;;;;;14.98;57.49;99043.94;4992685;28;20049;-80
2023/06/06 03:07:10;;;;;;;6.63;4.85;;;;;;;14.89;57.35;99048.28;5005158;28;20022;-80
2023/06/06 03:09:36;;;;;;;6.03;3.58;;;;;;;14.97;57.33;99050.41;4996644;28;20072;-80
2023/06/06 03:12:01;;;;;;;4.50;3.90;;;;;;;14.98;57.48;99043.16;5003648;28;20140;-80
2023/06/06 03:14:27;;;;;;;4.88;3.50;;;;;;;14.98;57.57;99049.31;4990128;28;20121;-80
2023/06/06 03:16:54;;;;;;;6.13;3.83;;;;;;;15.10;57.36;99051.72;4993753;28;20029;-80
2023/06/06 03:19:19;;;;;;;6.03;3.80;;;;;;;15.07;57.29;99043.41;5009640;28;20037;-79
2023/06/06 03:21:45;;;;;;;5.97;4.15;;;;;;;15.08;57.28;99045.81;4992284;28;20117;-80
2023/06/06 03:24:11;;;;;;;5.95;3.90;;;;;;;15.18;57.37;99058.44;5007845;28;20079;-79
2023/06/06 03:26:39;;;;;;;6.20;4.38;;;;;;;15.19;57.71;99054.66;5009737;28;20437;-80
2023/06/06 03:29:05;;;;;;;4.25;3.85;;;;;;;15.12;57.58;99046.06;5004825;28;20037;-80
2023/06/06 03:31:30;;;;;;;5.45;4.03;;;;;;;15.23;57.56;99061.09;4992136;28;20026;-80
2023/06/06 03:33:56;;;;;;;6.07;4.05;;;;;;;15.16;57.69;99057.91;4999774;28;24794;-79
2023/06/06 03:36:21;;;;;;;5.05;4.07;;;;;;;15.13;58.14;99053.06;5007376;28;20022;-79
2023/06/06 03:38:47;;;;;;;8.13;4.95;;;;;;;14.94;58.36;99069.75;5009775;28;20025;-80
2023/06/06 03:41:12;;;;;;;7.07;4.40;;;;;;;14.85;59.43;99066.00;4992819;28;20088;-80
2023/06/06 03:43:38;;;;;;;6.65;3.75;;;;;;;14.55;60.44;99076.75;4993704;28;20121;-80
2023/06/06 03:46:03;;;;;;;8.07;4.20;;;;;;;14.45;60.14;99081.31;5009202;28;20058;-79
2023/06/06 03:48:29;;;;;;;5.72;3.67;;;;;;;14.75;60.50;99078.63;5004571;28;20124;-79
2023/06/06 03:50:54;;;;;;;4.88;4.05;;;;;;;15.03;59.35;99062.75;5009894;28;20026;-80
2023/06/06 03:53:20;;;;;;;4.15;3.75;;;;;;;15.21;58.64;99074.00;5007652;28;20041;-80
2023/06/06 03:55:46;;;;;;;7.40;4.40;;;;;;;15.19;58.91;99082.34;5002009;28;20030;-80
2023/06/06 03:58:15;;;;;;;5.18;4.15;;;;;;;15.17;58.92;99081.00;5011606;28;20148;-81
2023/06/06 04:00:43;;;;;;;5.05;3.95;;;;;;;15.27;59.19;99080.97;5005948;28;20025;-81
2023/06/06 04:03:08;;;;;;;6.63;4.32;;;;;;;15.31;58.63;99074.00;5006279;28;20038;-81
2023/06/06 04:05:34;;;;;;;11.48;4.15;;;;;;;15.25;58.91;99081.25;4986226;28;20117;-81
2023/06/06 04:08:00;;;;;;;5.55;3.88;;;;;;;15.36;58.48;99071.25;5008089;28;20418;-81
2023/06/06 04:10:25;;;;;;;6.10;4.30;;;;;;;15.34;58.85;99079.63;5004882;28;20033;-81
2023/06/06 04:12:51;;;;;;;7.07;3.92;;;;;;;15.17;59.73;99083.69;4991072;28;20562;-80
2023/06/06 04:15:16;;;;;;;5.22;4.00;;;;;;;15.44;58.60;99085.00;4988460;28;20037;-81
2023/06/06 04:17:42;;;;;;;5.88;3.70;;;;;;;15.55;58.64;99080.41;5008551;28;20497;-81
2023/06/06 04:20:08;;;;;;;5.93;4.10;;;;;;;15.50;58.68;99077.72;5009587;28;20112;-81
2023/06/06 04:22:34;;;;;;;7.13;4.20;;;;;;;15.49;60.22;99090.34;5006167;28;20453;-81
2023/06/06 04:24:59;;;;;;;4.85;3.90;;;;;;;15.91;58.49;99089.94;5014810;28;20088;-81
2023/06/06 04:27:25;;;;;;;8.30;4.07;;;;;;;15.99;57.87;99086.63;5007096;28;20033;-81
2023/06/06 04:29:51;;;;;;;5.13;3.70;;;;;;;16.02;58.30;99088.78;5006216;28;20402;-81
2023/06/06 04:32:19;;;;;;;5.07;4.00;;;;;;;15.66;59.24;99084.66;5023209;28;20068;-81
2023/06/06 04:34:46;;;;;;;8.05;4.70;;;;;;;15.89;60.53;99085.91;5003938;28;20026;-81
2023/06/06 04:37:13;;;;;;;10.32;4.55;;;;;;;15.94;61.52;99086.69;5005544;28;20089;-81
2023/06/06 04:39:40;;;;;;;4.95;4.43;;;;;;;15.95;62.13;99092.84;5005579;28;20022;-81
2023/06/06 04:42:06;;;;;;;6.15;4.75;;;;;;;16.10;61.43;99082.81;5012089;28;20036;-81
2023/06/06 04:44:33;;;;;;;5.75;4.43;;;;;;;16.18;61.57;99089.50;5007406;28;20112;-80
2023/06/06 04:47:01;;;;;;;6.78;4.40;;;;;;;16.05;60.99;99093.63;5007349;28;20104;-81
2023/06/06 04:49:35;;;;;;;7.50;4.15;;;;;;;16.21;61.08;99089.75;5011208;28;20633;-81
2023/06/06 04:52:08;;;;;;;5.45;4.18;;;;;;;16.76;57.00;99091.28;5007304;28;20116;-81
2023/06/06 04:54:37;;;;;;;6.00;4.95;;;;;;;16.79;57.07;99076.44;4995053;28;20104;-81
2023/06/06 04:57:07;;;;;;;10.75;4.10;;;;;;;16.55;60.26;99089.03;5011287;28;20036;-82
2023/06/06 04:59:33;;;;;;;6.22;4.63;;;;;;;16.43;60.20;99098.22;5011398;28;20947;-82
2023/06/06 05:02:01;;;;;;;6.82;4.35;;;;;;;16.27;60.64;99088.63;5022686;28;20092;-82
2023/06/06 05:04:29;;;;;;;8.80;5.20;;;;;;;16.15;60.83;99090.88;4992564;28;20034;-82
2023/06/06 05:06:58;;;;;;;9.45;6.13;;;;;;;16.11;61.67;99100.59;5005834;28;20029;-81
2023/06/06 05:09:24;;;;;;;9.00;5.55;;;;;;;16.39;60.41;99117.94;5005252;28;20044;-82
2023/06/06 05:11:52;;;;;;;9.85;4.78;;;;;;;16.60;59.61;99119.41;5004254;28;20473;-82
2023/06/06 05:14:24;;;;;;;14.40;5.00;;;;;;;16.74;60.26;99111.50;5009609;28;20029;-81
2023/06/06 05:16:52;;;;;;;11.23;5.75;;;;;;;16.73;61.12;99115.31;5003713;28;20042;-81
2023/06/06 05:19:18;;;;;;;13.73;5.32;;;;;;;16.72;61.03;99116.38;5009832;28;20083;-82
2023/06/06 05:21:44;;;;;;;12.27;4.82;;;;;;;16.10;62.70;99109.75;5007685;28;20041;-81
2023/06/06 05:24:09;;;;;;;10.55;4.18;;;;;;;17.21;57.61;99107.03;5000966;28;20037;-81
2023/06/06 05:26:35;;;;;;;6.50;4.97;;;;;;;17.38;57.28;99111.19;5005890;28;20057;-82
2023/06/06 05:29:00;;;;;;;14.65;5.68;;;;;;;16.78;59.51;99115.25;5005680;28;20032;-83
2023/06/06 05:31:26;;;;;;;10.15;5.47;;;;;;;16.62;60.68;99128.03;5005049;28;20057;-81
2023/06/06 05:33:52;;;;;;;11.90;5.05;;;;;;;16.56;59.73;99123.75;5006998;28;20030;-80
2023/06/06 05:36:17;;;;;;;6.43;4.75;;;;;;;16.31;60.36;99124.72;5008671;28;20030;-80
2023/06/06 05:38:43;;;;;;;9.27;4.88;;;;;;;16.50;60.08;99127.59;4972706;28;20023;-80
2023/06/06 05:41:08;;;;;;;8.02;5.22;;;;;;;16.01;61.72;99138.31;5001681;28;20081;-80
2023/06/06 05:43:33;;;;;;;11.60;5.68;;;;;;;15.96;62.85;99132.16;5010774;28;20034;-80
2023/06/06 05:46:01;;;;;;;6.57;5.07;;;;;;;15.79;62.87;99129.84;4990702;28;20042;-80
2023/06/06 05:48:26;;;;;;;8.00;5.90;;;;;;;15.56;63.75;99125.03;5003910;28;20034;-80
2023/06/06 05:50:52;;;;;;;7.95;5.40;;;;;;;15.77;63.54;99123.09;5006662;28;20042;-80
2023/06/06 05:53:17;;;;;;;8.55;6.28;;;;;;;15.03;64.95;99121.06;4990722;28;20034;-81
2023/06/06 05:55:43;;;;;;;8.70;4.75;;;;;;;15.83;61.94;99125.50;5013107;28;20025;-80
2023/06/06 05:58:08;;;;;;;6.95;4.90;;;;;;;16.46;60.02;99132.72;4991566;28;20396;-79
2023/06/06 06:00:35;;;;;;;11.05;5.03;;;;;;;16.78;58.95;99123.31;4966263;28;20052;-80
2023/06/06 06:03:01;;;;;;;10.77;5.55;;;;;;;16.53;60.38;99128.91;4994973;28;20120;-79
2023/06/06 06:05:28;;;;;;;8.82;5.15;;;;;;;16.43;60.49;99129.75;4989030;28;20483;-80
2023/06/06 06:07:59;;;;;;;13.30;5.68;;;;;;;16.37;61.73;99129.00;5004070;28;20039;-79
2023/06/06 06:10:29;;;;;;;7.35;5.40;;;;;;;15.93;62.67;99133.53;4985657;28;20406;-80
2023/06/06 06:12:55;;;;;;;8.93;5.45;;;;;;;16.05;62.16;99125.94;4980511;28;20046;-80
2023/06/06 06:15:21;;;;;;;8.32;5.07;;;;;;;16.19;62.07;99136.91;5004020;28;20037;-81
2023/06/06 06:17:46;;;;;;;11.57;6.10;;;;;;;16.15;62.63;99141.22;4991143;28;20037;-81
2023/06/06 06:20:14;;;;;;;15.05;6.65;;;;;;;15.77;64.33;99132.78;4984213;28;20025;-80
2023/06/06 06:22:40;;;;;;;12.48;6.90;;;;;;;15.46;65.04;99131.28;4992382;28;20029;-80
2023/06/06 06:25:08;;;;;;;13.80;6.95;;;;;;;15.64;64.53;99136.06;4993797;28;20106;-80
2023/06/06 06:27:37;;;;;;;11.73;5.93;;;;;;;15.64;65.09;99146.00;5011615;28;20030;-80
2023/06/06 06:30:04;;;;;;;14.15;6.40;;;;;;;15.73;64.92;99138.97;5007882;28;20363;-79
2023/06/06 06:32:31;;;;;;;17.98;6.20;;;;;;;15.46;65.92;99141.22;5008992;28;20030;-79
2023/06/06 06:34:57;;;;;;;11.40;6.60;;;;;;;15.40;66.20;99134.19;5008043;28;20057;-79
2023/06/06 06:37:23;;;;;;;9.82;5.00;;;;;;;15.99;63.55;99140.50;5008636;28;20517;-80
2023/06/06 06:39:49;;;;;;;8.63;5.50;;;;;;;15.62;64.52;99145.47;5003099;28;20048;-79
2023/06/06 06:42:14;;;;;;;16.13;6.72;;;;;;;15.44;66.60;99146.84;5007390;28;20557;-79
2023/06/06 06:44:40;;;;;;;13.55;6.35;;;;;;;15.32;66.89;99153.59;5002684;28;20045;-80
2023/06/06 06:47:06;;;;;;;15.00;6.68;;;;;;;15.72;65.45;99145.47;5004901;28;20442;-79
2023/06/06 06:49:31;;;;;;;13.13;6.10;;;;;;;15.38;67.37;99137.16;4994212;28;20065;-79
2023/06/06 06:51:57;;;;;;;10.45;6.03;;;;;;;15.39;66.40;99146.84;4993752;28;20458;-79
2023/06/06 06:54:26;;;;;;;17.83;6.75;;;;;;;15.54;66.83;99154.94;5003503;28;20026;-80
2023/06/06 06:56:53;;;;;;;13.27;5.97;;;;;;;15.85;65.68;99152.94;5001002;28;20379;-79
2023/06/06 06:59:20;;;;;;;12.48;5.60;;;;;;;15.85;65.51;99160.22;4998373;28;20998;-80
2023/06/06 07:01:49;;;;;;;11.55;5.80;;;;;;;16.32;63.03;99163.22;5007055;28;20494;-80
2023/06/06 07:04:17;;;;;;;14.45;7.45;;;;;;;16.08;65.53;99162.25;5005366;28;20474;-79
2023/06/06 07:06:46;;;;;;;13.00;6.43;;;;;;;16.06;66.06;99156.34;5006028;28;20037;-79
2023/06/06 07:09:13;;;;;;;9.30;5.60;;;;;;;16.03;65.88;99156.91;5006277;28;20120;-79
2023/06/06 07:11:38;;;;;;;9.82;6.40;;;;;;;16.42;65.70;99161.28;4995166;28;20026;-80
2023/06/06 07:14:04;;;;;;;13.05;6.85;;;;;;;16.63;64.97;99167.38;5002870;28;20030;-80
2023/06/06 07:16:31;;;;;;;14.25;6.45;;;;;;;16.94;63.25;99171.47;5011711;28;20544;-79
2023/06/06 07:18:57;;;;;;;10.75;5.82;;;;;;;17.32;61.58;99175.19;5018437;28;20044;-80
2023/06/06 07:21:25;;;;;;;11.90;5.63;;;;;;;17.67;60.24;99157.88;5007381;28;20026;-79
2023/06/06 07:23:50;;;;;;;12.13;4.78;;;;;;;17.99;59.42;99168.84;5012331;28;20099;-80
2023/06/06 07:26:17;;;;;;;16.35;6.55;;;;;;;17.16;62.87;99176.41;5012466;28;20119;-80
2023/06/06 07:28:49;;;;;;;12.27;6.78;;;;;;;16.92;64.36;99164.75;5013709;28;20525;-80
2023/06/06 07:31:15;;;;;;;11.50;6.47;;;;;;;17.05;63.93;99167.63;5006048;28;20045;-80
2023/06/06 07:33:41;;;;;;;14.48;6.93;;;;;;;17.12;64.12;99170.00;4990926;28;20120;-80
2023/06/06 07:36:07;;;;;;;12.52;6.68;;;;;;;17.38;63.02;99168.66;5011844;28;20869;-80
2023/06/06 07:38:33;;;;;;;6.88;5.28;;;;;;;17.72;60.92;99158.63;5008034;28;20072;-80
2023/06/06 07:40:59;;;;;;;7.00;5.38;;;;;;;18.35;58.95;99169.19;5007491;28;20058;-80
2023/06/06 07:43:24;;;;;;;5.53;4.88;;;;;;;18.54;58.63;99161.94;5007453;28;20022;-81
2023/06/06 07:45:50;;;;;;;8.82;5.00;;;;;;;18.65;60.42;99153.34;5006677;28;20508;-80
2023/06/06 07:48:16;;;;;;;14.75;5.90;;;;;;;18.57;62.01;99159.44;5009821;28;20120;-80
2023/06/06 07:50:41;;;;;;;9.40;5.32;;;;;;;18.74;59.05;99150.00;4996266;28;20121;-80
2023/06/06 07:53:07;;;;;;;11.30;6.15;;;;;;;18.69;59.58;99154.41;4991448;28;20033;-80
2023/06/06 07:55:32;;;;;;;12.90;7.20;;;;;;;18.42;60.02;99150.72;4992247;28;20119;-80
2023/06/06 07:57:58;;;;;;;11.05;5.90;;;;;;;18.43;59.32;99152.31;5007446;28;20045;-80
2023/06/06 08:00:23;;;;;;;10.45;5.95;;;;;;;18.73;58.84;99149.19;5007937;28;20049;-81
2023/06/06 08:02:49;;;;;;;9.55;5.65;;;;;;;18.98;57.89;99165.03;5006239;28;20558;-81
2023/06/06 08:05:17;;;;;;;9.45;6.07;;;;;;;18.54;59.04;99159.22;5011403;28;20025;-80
2023/06/06 08:07:44;;;;;;;9.90;6.30;;;;;;;18.89;58.63;99161.41;5011806;28;20501;-80
2023/06/06 08:10:11;;;;;;;8.23;4.50;;;;;;;19.29;56.55;99162.59;5008995;28;20025;-80
2023/06/06 08:12:36;;;;;;;10.60;5.45;;;;;;;19.28;59.42;99159.13;5009693;28;20538;-80
2023/06/06 08:15:04;;;;;;;9.52;6.13;;;;;;;19.42;60.23;99165.38;5006539;28;20041;-80
2023/06/06 08:17:30;;;;;;;7.82;4.85;;;;;;;19.70;56.23;99154.59;5008286;28;20029;-80
2023/06/06 08:19:55;;;;;;;10.52;5.55;;;;;;;19.72;58.38;99150.50;4986278;28;20041;-80
2023/06/06 08:22:21;;;;;;;10.07;5.82;;;;;;;19.57;56.79;99171.63;4990581;28;20429;-80
2023/06/06 08:24:46;;;;;;;7.72;5.43;;;;;;;19.56;56.54;99153.75;5005541;28;20131;-80
2023/06/06 08:27:12;;;;;;;9.77;5.53;;;;;;;19.58;56.48;99167.81;4992611;28;20041;-80
2023/06/06 08:29:37;;;;;;;11.95;5.57;;;;;;;19.61;56.99;99164.50;5000550;28;21905;-80
2023/06/06 08:32:04;;;;;;;13.02;4.93;;;;;;;19.98;56.42;99164.31;4984089;28;20374;-80
2023/06/06 08:34:29;;;;;;;8.90;4.82;;;;;;;20.05;55.23;99151.97;4986863;28;20117;-79
2023/06/06 08:36:55;;;;;;;7.82;5.60;;;;;;;20.11;55.50;99149.97;4985090;28;20255;-80
2023/06/06 08:39:21;;;;;;;9.77;4.22;;;;;;;20.59;53.58;99155.72;5000757;28;20045;-80
2023/06/06 08:41:51;;;;;;;9.93;4.75;;;;;;;20.72;53.00;99157.59;4998189;28;20089;-80
2023/06/06 08:44:19;;;;;;;9.27;4.10;;;;;;;20.81;52.94;99153.03;4982827;28;20084;-80
2023/06/06 08:46:46;;;;;;;7.45;4.70;;;;;;;20.73;53.18;99146.41;4999357;28;20037;-80
2023/06/06 08:49:16;;;;;;;8.13;4.90;;;;;;;20.71;53.33;99158.69;5001202;28;20088;-80
2023/06/06 08:51:42;;;;;;;8.40;5.22;;;;;;;20.63;53.26;99162.13;5004994;28;20026;-79
2023/06/06 08:54:08;;;;;;;8.18;4.05;;;;;;;21.02;52.94;99153.31;5006926;28;20048;-80
2023/06/06 08:56:35;;;;;;;8.20;4.63;;;;;;;21.14;52.46;99150.91;5011155;28;20041;-79
2023/06/06 08:59:01;;;;;;;7.55;4.70;;;;;;;21.34;52.21;99159.31;5011477;28;20026;-80
2023/06/06 09:01:27;;;;;;;5.57;4.68;;;;;;;21.58;51.36;99164.38;5005433;28;20136;-80
2023/06/06 09:03:53;;;;;;;5.82;4.45;;;;;;;21.67;51.51;99157.88;5004420;28;20033;-80
2023/06/06 09:06:21;;;;;;;8.48;5.10;;;;;;;21.77;51.36;99170.41;4989747;28;20032;-80
2023/06/06 09:08:48;;;;;;;9.82;5.03;;;;;;;21.79;51.53;99162.75;5012532;28;20049;-81
2023/06/06 09:11:15;;;;;;;7.45;5.05;;;;;;;21.86;52.83;99159.59;5004895;28;20072;-81
2023/06/06 09:13:44;;;;;;;10.02;5.50;;;;;;;21.44;51.90;99175.38;5003802;28;20034;-80
2023/06/06 09:16:09;;;;;;;7.18;5.78;;;;;;;21.37;52.25;99164.13;5004223;28;20041;-80
2023/06/06 09:18:35;;;;;;;7.50;5.30;;;;;;;21.44;52.22;99185.41;4993146;28;20544;-81
2023/06/06 09:21:02;;;;;;;12.30;5.35;;;;;;;21.63;52.06;99180.56;5003409;28;20034;-80
2023/06/06 09:23:30;;;;;;;5.28;4.75;;;;;;;21.62;52.78;99184.41;5004192;28;20045;-80
2023/06/06 09:25:56;;;;;;;7.00;5.50;;;;;;;21.41;51.39;99177.88;5010503;28;20425;-80
2023/06/06 09:28:36;;;;;;;6.07;4.60;;;;;;;21.70;52.00;99180.13;5005871;28;20037;-80
2023/06/06 09:31:25;;;;;;;6.65;4.88;;;;;;;21.83;51.66;99171.91;5011022;28;20037;-80
2023/06/06 09:33:55;;;;;;;6.50;4.35;;;;;;;21.81;51.69;99168.66;4990889;28;20037;-81
2023/06/06 09:36:29;;;;;;;6.22;3.97;;;;;;;21.73;51.68;99176.78;5024293;28;20169;-81
2023/06/06 09:39:03;;;;;;;12.05;5.40;;;;;;;21.31;53.03;99159.16;5003950;28;20164;-82
2023/06/06 09:41:28;;;;;;;6.32;4.90;;;;;;;20.80;53.25;99168.50;5005378;28;20036;-80
2023/06/06 09:43:55;;;;;;;12.00;4.85;;;;;;;20.79;54.08;99168.81;4988573;28;20046;-81
2023/06/06 09:46:20;;;;;;;9.88;5.05;;;;;;;21.14;52.55;99169.91;5005478;28;21952;-80
2023/06/06 09:49:01;;;;;;;10.70;4.70;;;;;;;21.36;52.44;99167.19;5011354;28;20045;-81
2023/06/06 09:51:31;;;;;;;7.72;4.63;;;;;;;21.29;53.11;99164.91;5007831;28;20037;-81
2023/06/06 09:54:00;;;;;;;6.57;5.00;;;;;;;21.08;53.57;99168.44;4990971;28;20389;-80
2023/06/06 09:56:27;;;;;;;6.88;5.38;;;;;;;20.71;53.95;99175.75;5008266;28;20022;-80
2023/06/06 09:58:55;;;;;;;9.63;5.43;;;;;;;20.59;54.02;99155.72;4993574;28;20107;-80
2023/06/06 10:01:27;;;;;;;11.55;5.20;;;;;;;20.77;53.78;99165.63;5007994;28;20018;-80
2023/06/06 10:03:56;;;;;;;9.52;5.05;;;;;;;20.68;54.43;99159.31;5005440;28;20056;-80
2023/06/06 10:06:23;;;;;;;7.32;4.32;;;;;;;20.80;54.58;99171.22;5007647;28;20450;-81
2023/06/06 10:08:53;;;;;;;6.40;4.97;;;;;;;21.16;53.40;99175.81;5009316;28;20029;-81
2023/06/06 10:11:20;;;;;;;6.95;4.68;;;;;;;21.27;53.00;99171.75;5010558;28;20053;-81
2023/06/06 10:13:47;;;;;;;7.10;5.78;;;;;;;21.01;53.77;99173.47;5011016;28;20033;-81
2023/06/06 10:16:14;;;;;;;6.45;4.68;;;;;;;20.87;54.25;99170.78;5009865;28;20054;-81
2023/06/06 10:18:41;;;;;;;5.63;5.00;;;;;;;20.26;55.15;99163.22;5011312;28;20033;-80
2023/06/06 10:21:08;;;;;;;7.88;5.03;;;;;;;20.27;55.65;99175.66;5016732;28;20084;-80
2023/06/06 10:23:34;;;;;;;6.90;4.60;;;;;;;20.68;54.75;99187.25;5006471;28;20041;-80
2023/06/06 10:26:01;;;;;;;9.05;5.32;;;;;;;20.30;55.77;99158.78;5008710;28;20045;-80
2023/06/06 10:28:37;;;;;;;7.57;5.00;;;;;;;20.47;56.06;99171.72;4993742;28;20581;-80
2023/06/06 10:31:12;;;;;;;;;;;;;;;20.63;55.62;99187.34;5026104;28;20397;-81
2023/06/06 10:33:45;;;;;;;11.18;5.95;;;;;;;20.48;57.20;99176.84;5011422;28;19931;-80
2023/06/06 10:36:17;;;;;;;8.43;5.57;;;;;;;20.59;55.71;99174.72;5010255;28;20100;-80
2023/06/06 10:39:21;;;;;;;16.73;6.03;;;;;;;20.68;53.83;99179.09;5008873;28;20029;-81
2023/06/06 10:42:06;;;;;;;9.75;6.30;;;;;;;20.98;54.78;99174.88;5008845;28;20034;-80
2023/06/06 10:44:41;;;;;;;7.38;5.55;;;;;;;21.17;53.39;99177.41;5005850;28;20374;-81
2023/06/06 10:47:28;;;;;;;9.18;5.28;;;;;;;21.86;53.63;99182.16;5010502;28;20108;-80
2023/06/06 10:50:12;;;;;;;8.80;5.57;;;;;;;21.66;53.51;99190.81;5008023;28;20068;-81
2023/06/06 10:53:05;;;;;;;5.93;4.88;;;;;;;22.19;52.36;99185.31;5008151;28;20559;-80
2023/06/06 10:55:30;;;;;;;5.47;4.38;;;;;;;22.23;52.47;99183.53;5008205;28;20058;-81
2023/06/06 10:58:07;;;;;;;7.18;5.35;;;;;;;22.00;52.67;99190.19;5005590;28;20212;-81
2023/06/06 11:00:41;;;;;;;8.43;5.15;;;;;;;21.51;54.11;99193.94;5005560;28;20104;-80
2023/06/06 11:03:22;;;;;;;9.43;5.28;;;;;;;21.77;53.86;99191.34;4978057;28;20133;-81
2023/06/06 11:06:00;;;;;;;10.57;5.00;;;;;;;21.83;53.37;99196.34;5001569;28;20036;-80
2023/06/06 11:08:57;;;;;;;11.63;5.45;;;;;;;21.38;53.97;99179.31;5010256;28;20030;-81
2023/06/06 11:11:27;;;;;;;10.07;4.85;;;;;;;21.61;53.58;99188.22;5005858;28;20033;-81
2023/06/06 11:13:56;;;;;;;8.32;4.68;;;;;;;21.58;53.26;99189.66;4979910;28;20121;-80
2023/06/06 11:16:48;;;;;;;7.65;4.53;;;;;;;21.81;53.01;99184.97;5007863;28;20067;-81
2023/06/06 11:19:19;;;;;;;5.53;4.32;;;;;;;21.91;52.91;99176.56;4999400;28;20034;-81
2023/06/06 11:21:49;;;;;;;5.88;4.45;;;;;;;21.92;52.63;99170.00;5010030;28;20045;-81
2023/06/06 11:24:17;;;;;;;8.00;5.10;;;;;;;21.84;51.98;99170.00;5010239;28;20026;-81
2023/06/06 11:26:43;;;;;;;6.63;4.10;;;;;;;21.78;51.89;99177.44;5000800;28;20026;-81
2023/06/06 11:29:10;;;;;;;7.47;4.45;;;;;;;21.87;51.03;99167.44;5005325;28;20033;-81
2023/06/06 11:31:37;;;;;;;8.50;4.13;;;;;;;22.02;51.79;99156.13;4987169;28;20030;-81
2023/06/06 11:34:08;;;;;;;8.55;3.95;;;;;;;22.07;50.52;99145.13;4993302;28;20034;-81